Time;durP1;ratioP1;P1;durP2;ratioP2;P2;SDS_P1;SDS_P2;PMS_P1;PMS_P2;Temp;Humidity;BMP_temperature;BMP_pressure;BME280_temperature;BME280_humidity;BME280_pressure;Samples;Min_cycle;Max_cycle;Signal;HPM_P1;HPM_P2
2022/03/17 00:00:19;;;;;;;3.93;2.80;;;9.90;98.00;;;;;;6118825;23;20456;-69
2022/03/17 00:02:46;;;;;;;5.40;3.10;;;9.80;98.00;;;;;;6119435;23;20395;-69
2022/03/17 00:05:14;;;;;;;3.77;2.70;;;9.90;98.00;;;;;;6120848;23;20732;-69
2022/03/17 00:07:42;;;;;;;2.90;2.30;;;9.90;98.00;;;;;;6120804;23;20428;-69
2022/03/17 00:10:15;;;;;;;7.27;3.57;;;9.90;98.00;;;;;;6120667;23;20725;-69
2022/03/17 00:12:42;;;;;;;2.60;2.43;;;9.90;98.00;;;;;;6120728;23;20488;-69
2022/03/17 00:15:09;;;;;;;3.23;3.03;;;9.80;98.00;;;;;;6120311;23;20487;-69
2022/03/17 00:17:36;;;;;;;3.67;3.10;;;9.80;98.00;;;;;;6120517;23;20454;-69
2022/03/17 00:20:07;;;;;;;2.60;2.30;;;9.80;98.00;;;;;;6120759;23;20413;-69
2022/03/17 00:22:34;;;;;;;3.97;2.33;;;9.80;98.00;;;;;;6121123;23;20437;-69
2022/03/17 00:25:01;;;;;;;4.87;2.93;;;9.90;98.00;;;;;;6120600;23;20418;-69
2022/03/17 00:27:30;;;;;;;5.80;2.63;;;9.90;98.00;;;;;;6094440;23;20487;-69
2022/03/17 00:29:56;;;;;;;5.33;2.90;;;10.00;98.00;;;;;;6120613;23;20418;-70
2022/03/17 00:32:24;;;;;;;6.57;3.00;;;9.90;98.00;;;;;;6120634;23;20444;-69
2022/03/17 00:37:36;;;;;;;2.80;2.60;;;9.80;98.00;;;;;;6120945;23;20465;-69
2022/03/17 00:40:04;;;;;;;2.27;2.10;;;9.90;98.00;;;;;;6120021;23;20483;-70
2022/03/17 00:42:33;;;;;;;4.90;3.47;;;9.90;98.00;;;;;;6120815;23;20803;-69
2022/03/17 00:45:00;;;;;;;4.10;2.60;;;9.90;98.00;;;;;;6120535;23;20413;-69
2022/03/17 00:47:27;;;;;;;3.37;3.23;;;9.90;98.00;;;;;;6120715;23;20452;-69
2022/03/17 00:49:54;;;;;;;4.23;2.23;;;10.10;98.00;;;;;;6120828;23;20459;-69
2022/03/17 00:52:21;;;;;;;4.20;2.80;;;10.00;98.00;;;;;;6120805;23;20502;-69
2022/03/17 00:54:48;;;;;;;2.60;2.40;;;9.90;98.00;;;;;;6120517;23;20712;-69
2022/03/17 00:57:18;;;;;;;5.10;3.07;;;9.90;98.00;;;;;;6120675;23;20993;-70
2022/03/17 00:59:48;;;;;;;2.20;1.70;;;9.90;98.00;;;;;;6120668;23;20800;-69
2022/03/17 01:02:16;;;;;;;2.83;1.90;;;9.90;98.00;;;;;;6120282;23;20395;-70
2022/03/17 01:04:43;;;;;;;2.40;2.20;;;9.90;98.00;;;;;;6120160;23;20420;-69
2022/03/17 01:07:10;;;;;;;5.93;3.03;;;9.80;98.00;;;;;;6120675;23;20472;-69
2022/03/17 01:09:37;;;;;;;3.93;2.87;;;9.80;98.00;;;;;;6120789;23;20395;-70
2022/03/17 01:12:04;;;;;;;3.67;2.60;;;9.80;98.00;;;;;;6120356;23;20478;-69
2022/03/17 01:14:31;;;;;;;4.10;3.20;;;9.80;98.00;;;;;;6120053;23;20406;-69
2022/03/17 01:17:00;;;;;;;3.30;3.10;;;9.80;98.00;;;;;;6120122;23;20923;-70
2022/03/17 01:19:27;;;;;;;3.90;3.00;;;9.70;98.00;;;;;;6120181;23;20871;-69
2022/03/17 01:21:54;;;;;;;8.37;3.00;;;9.70;98.00;;;;;;6120358;23;20436;-70
2022/03/17 01:24:21;;;;;;;4.27;2.70;;;9.60;98.00;;;;;;6120570;23;20734;-69
2022/03/17 01:26:48;;;;;;;4.90;2.47;;;9.50;98.00;;;;;;6094981;23;20478;-69
2022/03/17 01:29:15;;;;;;;4.30;2.30;;;9.50;98.00;;;;;;6120414;23;20438;-70
2022/03/17 01:31:42;;;;;;;6.27;3.40;;;9.50;98.00;;;;;;6120684;23;20426;-69
2022/03/17 01:34:10;;;;;;;4.33;3.03;;;9.60;98.00;;;;;;6120219;23;20940;-69
2022/03/17 01:36:37;;;;;;;3.80;2.80;;;9.50;98.00;;;;;;6120474;23;20777;-69
2022/03/17 01:39:05;;;;;;;2.40;2.20;;;9.60;98.00;;;;;;6120505;23;20418;-70
2022/03/17 01:41:32;;;;;;;2.70;2.50;;;9.50;98.00;;;;;;6120153;23;20977;-70
2022/03/17 01:43:59;;;;;;;4.57;2.83;;;9.50;98.00;;;;;;6120284;23;20471;-69
2022/03/17 01:46:26;;;;;;;4.67;3.27;;;9.50;98.00;;;;;;6120367;23;20424;-69
2022/03/17 01:48:53;;;;;;;7.17;3.63;;;9.60;98.00;;;;;;6120300;23;20915;-69
2022/03/17 01:51:22;;;;;;;3.53;2.20;;;9.60;98.00;;;;;;6121356;23;20745;-69
2022/03/17 01:53:49;;;;;;;2.90;2.30;;;9.60;98.00;;;;;;6120827;23;20500;-70
2022/03/17 01:56:18;;;;;;;3.20;2.90;;;9.50;98.00;;;;;;6121076;23;20420;-69
2022/03/17 01:58:45;;;;;;;9.63;4.10;;;9.50;98.00;;;;;;6095168;23;20421;-69
2022/03/17 02:01:12;;;;;;;2.93;2.60;;;9.40;98.00;;;;;;6120386;23;20423;-69
2022/03/17 02:03:43;;;;;;;10.93;3.70;;;9.40;98.00;;;;;;6120038;23;20424;-69
2022/03/17 02:06:10;;;;;;;4.40;2.60;;;9.40;98.00;;;;;;6120463;23;20412;-70
2022/03/17 02:08:39;;;;;;;3.83;2.63;;;9.40;98.00;;;;;;6120380;23;20420;-70
2022/03/17 02:13:51;;;;;;;2.37;2.17;;;9.30;98.00;;;;;;6120746;23;20440;-69
2022/03/17 02:16:18;;;;;;;4.50;3.47;;;9.20;98.00;;;;;;6120217;23;20912;-69
2022/03/17 02:18:46;;;;;;;2.43;2.10;;;9.30;98.00;;;;;;6120384;23;20416;-70
2022/03/17 02:21:13;;;;;;;3.10;2.20;;;9.20;98.00;;;;;;6120257;23;20414;-69
2022/03/17 02:26:28;;;;;;;7.70;3.80;;;9.30;98.00;;;;;;6098688;23;20481;-69
2022/03/17 02:28:58;;;;;;;2.07;1.50;;;9.30;98.00;;;;;;6120182;23;20437;-69
2022/03/17 02:31:25;;;;;;;2.53;2.20;;;9.30;98.00;;;;;;6120462;23;20429;-68
2022/03/17 02:33:53;;;;;;;3.97;2.50;;;9.20;98.00;;;;;;6120058;23;20445;-69
2022/03/17 02:36:19;;;;;;;4.10;2.87;;;9.10;98.00;;;;;;6119754;23;20894;-69
2022/03/17 02:38:48;;;;;;;4.90;3.47;;;9.10;98.00;;;;;;6119888;23;20444;-69
2022/03/17 02:41:21;;;;;;;5.20;2.70;;;9.10;98.00;;;;;;6120125;23;20421;-69
2022/03/17 02:43:50;;;;;;;4.70;2.87;;;9.10;98.00;;;;;;6119860;23;20395;-70
2022/03/17 02:46:17;;;;;;;2.40;2.23;;;9.00;98.00;;;;;;6120005;23;20467;-69
2022/03/17 02:48:44;;;;;;;5.43;2.80;;;9.10;98.00;;;;;;6120060;23;20768;-69
2022/03/17 02:51:11;;;;;;;4.70;3.33;;;9.10;98.00;;;;;;6120093;23;20415;-69
2022/03/17 02:53:39;;;;;;;7.40;3.90;;;9.10;98.00;;;;;;6119997;23;20449;-70
2022/03/17 02:56:11;;;;;;;2.10;1.93;;;9.20;98.00;;;;;;6119755;23;20728;-69
2022/03/17 02:58:38;;;;;;;4.43;2.80;;;9.20;98.00;;;;;;6120039;23;20403;-69
2022/03/17 03:01:05;;;;;;;2.80;2.57;;;9.20;98.00;;;;;;6119722;23;20419;-70
2022/03/17 03:03:32;;;;;;;4.27;2.83;;;9.20;98.00;;;;;;6119789;23;20402;-69
2022/03/17 03:05:59;;;;;;;4.87;3.37;;;9.20;98.00;;;;;;6119508;23;20421;-69
2022/03/17 03:08:27;;;;;;;2.37;2.20;;;9.10;98.00;;;;;;6120023;23;20415;-70
2022/03/17 03:10:54;;;;;;;3.30;2.90;;;9.10;98.00;;;;;;6120074;23;20414;-70
2022/03/17 03:13:22;;;;;;;4.23;3.00;;;9.10;98.00;;;;;;6120097;23;20431;-69
2022/03/17 03:15:50;;;;;;;2.77;1.97;;;9.10;98.00;;;;;;6120262;23;20413;-69
2022/03/17 03:18:17;;;;;;;5.57;3.00;;;9.10;98.00;;;;;;6119367;23;20398;-69
2022/03/17 03:20:44;;;;;;;2.80;1.93;;;9.10;98.00;;;;;;6119412;23;20430;-70
2022/03/17 03:23:14;;;;;;;2.87;2.73;;;9.00;98.00;;;;;;6119861;23;20451;-69
2022/03/17 03:25:41;;;;;;;2.90;2.53;;;9.10;98.00;;;;;;6119748;23;20405;-70
2022/03/17 03:28:10;;;;;;;4.93;3.17;;;9.10;98.00;;;;;;6119993;23;20470;-69
2022/03/17 03:30:39;;;;;;;2.27;1.80;;;9.10;98.00;;;;;;6119943;23;20403;-69
2022/03/17 03:33:07;;;;;;;2.63;2.50;;;9.10;98.00;;;;;;6119773;23;20430;-70
2022/03/17 03:38:19;;;;;;;3.47;2.70;;;9.00;98.00;;;;;;6129912;23;20407;-69
2022/03/17 03:40:46;;;;;;;3.63;2.50;;;9.00;98.00;;;;;;6120901;23;20418;-70
2022/03/17 03:43:13;;;;;;;5.43;3.27;;;9.00;98.00;;;;;;6120873;23;20904;-69
2022/03/17 03:45:42;;;;;;;4.93;2.67;;;8.90;98.00;;;;;;6120530;23;20427;-69
2022/03/17 03:48:09;;;;;;;2.70;2.50;;;8.90;98.00;;;;;;6120650;23;20489;-69
2022/03/17 03:50:37;;;;;;;2.13;1.90;;;8.90;98.00;;;;;;6094849;23;20448;-69
2022/03/17 03:53:04;;;;;;;3.47;2.63;;;8.90;98.00;;;;;;6120942;23;20810;-69
2022/03/17 03:55:31;;;;;;;4.57;3.13;;;9.00;98.00;;;;;;6120614;23;20417;-70
2022/03/17 03:57:59;;;;;;;3.10;2.90;;;9.00;98.00;;;;;;6094703;23;20482;-69
2022/03/17 04:00:35;;;;;;;4.67;2.70;;;9.00;98.00;;;;;;6120731;23;20415;-69
2022/03/17 04:03:04;;;;;;;3.23;3.00;;;9.00;98.00;;;;;;6097069;23;20441;-69
2022/03/17 04:05:33;;;;;;;3.90;2.30;;;9.00;98.00;;;;;;6120624;23;20929;-69
2022/03/17 04:08:01;;;;;;;4.37;2.30;;;9.00;98.00;;;;;;6120744;23;20424;-69
2022/03/17 04:10:28;;;;;;;6.73;3.03;;;9.10;98.00;;;;;;6120291;23;20408;-69
2022/03/17 04:12:56;;;;;;;1.80;1.77;;;9.00;98.00;;;;;;6120415;23;20961;-70
2022/03/17 04:15:23;;;;;;;1.87;1.80;;;9.00;98.00;;;;;;6120298;23;20405;-69
2022/03/17 04:17:51;;;;;;;3.57;2.83;;;8.90;98.00;;;;;;6120758;23;20417;-69
2022/03/17 04:20:22;;;;;;;2.83;2.43;;;9.00;98.00;;;;;;6120749;23;20456;-69
2022/03/17 04:22:52;;;;;;;4.67;2.43;;;9.00;98.00;;;;;;6120560;23;20872;-70
2022/03/17 04:25:19;;;;;;;2.30;2.17;;;9.00;98.00;;;;;;6119770;23;20424;-69
2022/03/17 04:27:46;;;;;;;3.73;3.07;;;9.00;98.00;;;;;;6120375;23;20445;-69
2022/03/17 04:30:13;;;;;;;2.20;2.00;;;9.00;98.00;;;;;;6120494;23;20422;-69
2022/03/17 04:32:40;;;;;;;3.50;1.80;;;9.00;98.00;;;;;;6120651;23;20432;-69
2022/03/17 04:35:08;;;;;;;2.80;2.23;;;9.00;98.00;;;;;;6120798;23;20460;-70
2022/03/17 04:37:37;;;;;;;6.27;3.17;;;9.10;98.00;;;;;;6095005;23;20438;-69
2022/03/17 04:40:06;;;;;;;2.40;2.17;;;9.10;98.00;;;;;;6120916;23;20747;-68
2022/03/17 04:42:34;;;;;;;4.00;2.77;;;9.00;98.00;;;;;;6120312;23;20424;-69
2022/03/17 04:45:04;;;;;;;4.57;3.10;;;9.00;98.00;;;;;;6120583;23;20455;-69
2022/03/17 04:47:31;;;;;;;3.03;2.17;;;8.90;98.00;;;;;;6120393;23;20512;-70
2022/03/17 04:49:58;;;;;;;4.53;2.80;;;8.90;98.00;;;;;;6120188;23;20419;-69
2022/03/17 04:55:18;;;;;;;3.50;2.67;;;8.80;98.00;;;;;;6120629;23;20438;-68
2022/03/17 04:57:46;;;;;;;4.87;3.20;;;8.70;98.00;;;;;;6120900;23;20419;-68
2022/03/17 05:00:15;;;;;;;4.10;2.10;;;8.80;98.00;;;;;;6120549;23;20421;-70
2022/03/17 05:02:42;;;;;;;4.80;2.23;;;8.80;98.00;;;;;;6120587;23;20417;-69
2022/03/17 05:05:09;;;;;;;2.83;2.50;;;8.80;98.00;;;;;;6120522;23;20456;-69
2022/03/17 05:07:36;;;;;;;3.93;2.30;;;8.80;98.00;;;;;;6120541;23;20489;-69
2022/03/17 05:10:04;;;;;;;4.37;3.47;;;8.90;98.00;;;;;;6120661;23;20417;-70
2022/03/17 05:12:32;;;;;;;2.87;2.70;;;8.80;98.00;;;;;;6120059;23;20940;-68
2022/03/17 05:14:59;;;;;;;2.63;2.30;;;8.80;98.00;;;;;;6094908;23;20420;-69
2022/03/17 05:17:26;;;;;;;2.87;2.53;;;8.80;98.00;;;;;;6120119;23;20416;-69
2022/03/17 05:19:53;;;;;;;4.50;2.23;;;8.80;98.00;;;;;;6120049;23;20890;-69
2022/03/17 05:22:20;;;;;;;1.83;1.60;;;8.70;98.00;;;;;;6120450;23;20423;-69
2022/03/17 05:24:50;;;;;;;3.57;2.60;;;8.70;98.00;;;;;;6094282;23;20448;-69
2022/03/17 05:27:17;;;;;;;3.83;2.17;;;8.60;98.00;;;;;;6120534;23;20488;-69
2022/03/17 05:29:45;;;;;;;7.83;3.40;;;8.50;98.00;;;;;;6120478;23;20470;-69
2022/03/17 05:32:12;;;;;;;3.10;2.53;;;8.60;98.00;;;;;;6120533;23;20421;-69
2022/03/17 05:34:39;;;;;;;8.37;2.80;;;8.60;98.00;;;;;;6119808;23;20491;-70
2022/03/17 05:37:06;;;;;;;5.80;3.43;;;8.50;98.00;;;;;;6120192;23;20416;-70
2022/03/17 05:39:33;;;;;;;3.77;2.63;;;8.50;98.00;;;;;;6120672;23;20424;-69
2022/03/17 05:42:00;;;;;;;2.70;2.50;;;8.70;98.00;;;;;;6119576;23;20494;-69
2022/03/17 05:44:27;;;;;;;1.80;1.70;;;8.60;98.00;;;;;;6120729;23;20864;-69
2022/03/17 05:46:56;;;;;;;5.30;2.57;;;8.70;98.00;;;;;;6120501;23;20423;-69
2022/03/17 05:49:24;;;;;;;5.17;2.67;;;8.70;98.00;;;;;;6120154;23;20946;-69
2022/03/17 05:51:51;;;;;;;3.17;2.20;;;8.70;98.00;;;;;;6120516;23;20440;-69
2022/03/17 05:54:20;;;;;;;4.00;3.37;;;8.70;98.00;;;;;;6119828;23;20461;-70
2022/03/17 05:56:47;;;;;;;2.97;2.80;;;8.80;98.00;;;;;;6120007;23;20413;-68
2022/03/17 05:59:14;;;;;;;3.10;2.53;;;8.80;98.00;;;;;;6120334;23;20455;-69
2022/03/17 06:01:41;;;;;;;4.63;3.27;;;8.70;98.00;;;;;;6119639;23;20431;-69
2022/03/17 06:04:09;;;;;;;2.07;1.93;;;8.70;98.00;;;;;;6120671;23;20805;-69
2022/03/17 06:06:36;;;;;;;4.53;3.40;;;8.70;98.00;;;;;;6119761;23;20419;-69
2022/03/17 06:09:03;;;;;;;4.13;2.80;;;8.70;98.00;;;;;;6119836;23;20416;-70
2022/03/17 06:11:30;;;;;;;2.90;2.00;;;8.70;98.00;;;;;;6119900;23;20448;-70
2022/03/17 06:13:59;;;;;;;3.73;2.20;;;8.70;98.00;;;;;;6119643;23;20519;-69
2022/03/17 06:16:26;;;;;;;2.80;2.60;;;8.80;98.00;;;;;;6120363;23;20477;-68
2022/03/17 06:18:53;;;;;;;3.33;2.13;;;8.80;98.00;;;;;;6119999;23;20470;-70
2022/03/17 06:21:22;;;;;;;4.50;2.73;;;8.90;98.00;;;;;;6119996;23;20774;-70
2022/03/17 06:23:49;;;;;;;6.13;3.97;;;9.00;98.00;;;;;;6120175;23;20401;-70
2022/03/17 06:26:16;;;;;;;3.13;2.50;;;9.10;98.00;;;;;;6119674;23;20925;-69
2022/03/17 06:28:43;;;;;;;2.63;2.27;;;9.10;98.00;;;;;;6120094;23;20420;-69
2022/03/17 06:31:09;;;;;;;3.93;2.73;;;9.10;98.00;;;;;;6120188;23;20790;-69
2022/03/17 06:33:37;;;;;;;3.20;2.13;;;9.10;98.00;;;;;;6120359;23;20812;-69
2022/03/17 06:36:05;;;;;;;2.57;2.37;;;9.10;98.00;;;;;;6120255;23;20438;-70
2022/03/17 06:38:37;;;;;;;2.97;2.53;;;9.30;98.00;;;;;;6120285;23;20419;-69
2022/03/17 06:41:04;;;;;;;5.20;2.50;;;9.30;98.00;;;;;;6119979;23;20402;-69
2022/03/17 06:43:31;;;;;;;1.83;1.70;;;9.20;98.00;;;;;;6119979;23;20410;-69
2022/03/17 06:46:00;;;;;;;10.63;2.23;;;9.20;98.00;;;;;;6119693;23;20877;-69
2022/03/17 06:48:27;;;;;;;2.23;1.90;;;9.10;98.00;;;;;;6119877;23;20435;-69
2022/03/17 06:50:54;;;;;;;2.93;1.87;;;9.10;98.00;;;;;;6119725;23;20418;-69
2022/03/17 06:53:22;;;;;;;4.93;2.50;;;9.20;98.00;;;;;;6120019;23;20801;-69
2022/03/17 06:55:50;;;;;;;3.53;2.37;;;9.20;98.00;;;;;;6120225;23;20930;-69
2022/03/17 06:58:18;;;;;;;2.73;2.30;;;9.20;98.00;;;;;;6120030;23;20425;-69
2022/03/17 07:00:45;;;;;;;2.90;2.70;;;9.30;98.00;;;;;;6120059;23;20867;-69
2022/03/17 07:03:12;;;;;;;5.40;2.90;;;9.30;98.00;;;;;;6094451;23;20454;-70
2022/03/17 07:05:39;;;;;;;4.43;4.17;;;9.20;98.00;;;;;;6121061;23;20421;-70
2022/03/17 07:08:06;;;;;;;4.80;2.90;;;9.20;98.00;;;;;;6120193;23;20418;-69
2022/03/17 07:10:33;;;;;;;4.43;3.23;;;9.20;98.00;;;;;;6120918;23;20452;-69
2022/03/17 07:13:02;;;;;;;2.53;2.40;;;9.30;98.00;;;;;;6119764;23;20903;-68
2022/03/17 07:15:31;;;;;;;4.10;3.27;;;9.40;98.00;;;;;;6120960;23;20476;-68
2022/03/17 07:17:58;;;;;;;3.70;3.33;;;9.40;98.00;;;;;;6121237;23;20898;-68
2022/03/17 07:20:28;;;;;;;3.50;2.17;;;9.50;98.00;;;;;;6121166;23;20424;-68
2022/03/17 07:22:55;;;;;;;3.40;2.07;;;9.50;98.00;;;;;;6121061;23;20490;-68
2022/03/17 07:25:24;;;;;;;3.87;2.40;;;9.50;98.00;;;;;;6121143;23;20715;-68
2022/03/17 07:27:51;;;;;;;2.83;2.63;;;9.60;98.00;;;;;;6048446;23;20786;-69
2022/03/17 07:30:22;;;;;;;5.80;2.57;;;9.50;98.00;;;;;;6121122;23;20464;-68
2022/03/17 07:32:52;;;;;;;5.60;3.23;;;9.60;98.00;;;;;;6121495;23;20412;-69
2022/03/17 07:35:19;;;;;;;3.20;2.97;;;9.60;98.00;;;;;;6121000;23;20445;-68
2022/03/17 07:37:46;;;;;;;5.90;2.63;;;9.70;98.00;;;;;;6120846;23;20434;-68
2022/03/17 07:40:14;;;;;;;6.93;2.77;;;9.70;98.00;;;;;;6121048;23;20729;-68
2022/03/17 07:42:41;;;;;;;3.50;2.63;;;9.70;98.00;;;;;;6120993;23;20424;-68
2022/03/17 07:45:08;;;;;;;2.93;2.73;;;9.70;98.00;;;;;;6120263;23;20428;-68
2022/03/17 07:47:44;;;;;;;6.50;3.60;;;9.70;98.00;;;;;;6121125;23;20809;-69
2022/03/17 07:50:11;;;;;;;4.87;3.07;;;9.90;98.00;;;;;;6120962;23;20734;-68
2022/03/17 07:52:38;;;;;;;3.23;2.50;;;10.10;98.00;;;;;;6120623;23;20402;-69
2022/03/17 07:55:06;;;;;;;5.17;2.70;;;10.30;98.00;;;;;;6120328;23;20430;-67
2022/03/17 07:57:35;;;;;;;3.93;3.03;;;10.40;98.00;;;;;;6120553;23;20417;-68
2022/03/17 08:00:03;;;;;;;4.07;2.93;;;10.10;98.00;;;;;;6120910;23;20732;-69
2022/03/17 08:02:30;;;;;;;2.70;2.57;;;10.00;98.00;;;;;;6120888;23;20487;-68
2022/03/17 08:04:58;;;;;;;3.50;3.10;;;10.10;98.00;;;;;;6120663;23;20425;-68
2022/03/17 08:07:26;;;;;;;2.83;2.30;;;10.20;98.00;;;;;;6121191;23;20403;-68
2022/03/17 08:09:53;;;;;;;5.90;3.60;;;10.20;98.00;;;;;;6120892;23;20499;-68
2022/03/17 08:12:20;;;;;;;2.60;2.30;;;10.30;98.00;;;;;;6120508;23;20428;-68
2022/03/17 08:14:47;;;;;;;5.43;3.20;;;10.40;98.00;;;;;;6120997;23;20447;-68
2022/03/17 08:17:14;;;;;;;3.53;3.13;;;10.30;98.00;;;;;;6120580;23;20416;-68
2022/03/17 08:19:41;;;;;;;5.80;3.17;;;10.20;98.00;;;;;;6119310;23;20737;-67
2022/03/17 08:22:10;;;;;;;4.27;3.23;;;10.10;98.00;;;;;;6119496;23;20452;-67
2022/03/17 08:24:37;;;;;;;3.80;3.07;;;10.30;98.00;;;;;;6119481;23;20400;-68
2022/03/17 08:27:05;;;;;;;5.90;2.67;;;10.40;98.00;;;;;;6119881;23;20466;-69
2022/03/17 08:29:32;;;;;;;2.90;2.07;;;10.50;98.00;;;;;;6118996;23;20783;-69
2022/03/17 08:32:00;;;;;;;4.63;2.50;;;10.70;98.00;;;;;;6119224;23;20770;-69
2022/03/17 08:34:27;;;;;;;6.47;3.20;;;10.90;98.00;;;;;;6119342;23;20431;-68
2022/03/17 08:36:54;;;;;;;3.13;2.50;;;10.80;98.00;;;;;;6118953;23;20422;-68
2022/03/17 08:39:22;;;;;;;14.33;3.13;;;10.70;98.00;;;;;;6094058;23;20433;-68
2022/03/17 08:41:51;;;;;;;4.57;3.23;;;10.60;98.00;;;;;;6118931;23;20479;-68
2022/03/17 08:44:18;;;;;;;5.60;2.77;;;10.60;98.00;;;;;;6120251;23;20456;-67
2022/03/17 08:49:29;;;;;;;4.17;2.27;;;10.80;98.00;;;;;;6059312;23;20451;-67
2022/03/17 08:51:59;;;;;;;4.20;3.17;;;10.80;98.00;;;;;;6119564;23;20480;-68
2022/03/17 08:54:30;;;;;;;3.27;3.10;;;11.00;98.00;;;;;;6119081;23;20941;-68
2022/03/17 08:57:00;;;;;;;3.10;2.60;;;11.10;98.00;;;;;;6119883;23;20395;-65
2022/03/17 08:59:30;;;;;;;4.47;2.30;;;11.20;98.00;;;;;;6119347;23;20448;-66
2022/03/17 09:01:57;;;;;;;2.87;2.37;;;11.30;98.00;;;;;;6119604;23;20397;-68
2022/03/17 09:04:24;;;;;;;4.37;3.37;;;11.20;98.00;;;;;;6119202;23;20455;-67
2022/03/17 09:06:51;;;;;;;5.37;3.60;;;11.00;98.00;;;;;;6118987;23;20402;-66
2022/03/17 09:09:18;;;;;;;2.90;2.33;;;10.80;98.00;;;;;;6119470;23;20445;-65
2022/03/17 09:11:46;;;;;;;4.73;3.00;;;10.70;98.00;;;;;;6119714;23;20455;-66
2022/03/17 09:14:14;;;;;;;3.37;2.37;;;10.60;98.00;;;;;;6119983;23;20430;-66
2022/03/17 09:16:41;;;;;;;3.70;2.80;;;10.60;98.00;;;;;;6119873;23;20480;-66
2022/03/17 09:19:08;;;;;;;3.80;3.30;;;10.80;98.00;;;;;;6119841;23;20421;-66
2022/03/17 09:21:36;;;;;;;3.43;3.10;;;10.70;98.00;;;;;;6093733;23;20413;-68
2022/03/17 09:24:03;;;;;;;2.83;2.33;;;10.90;98.00;;;;;;6119538;23;20407;-68
2022/03/17 09:26:31;;;;;;;3.70;2.00;;;11.10;98.00;;;;;;6119278;23;20442;-68
2022/03/17 09:29:06;;;;;;;4.53;2.70;;;11.20;98.00;;;;;;6119302;23;20418;-66
2022/03/17 09:31:33;;;;;;;5.43;3.50;;;11.10;98.00;;;;;;6118365;23;20459;-66
2022/03/17 09:34:01;;;;;;;4.10;3.13;;;11.10;98.00;;;;;;6118646;23;20436;-66
2022/03/17 09:36:28;;;;;;;8.80;3.40;;;11.20;98.00;;;;;;6118517;23;20463;-66
2022/03/17 09:41:42;;;;;;;5.07;3.40;;;11.10;98.00;;;;;;6119527;23;20955;-66
2022/03/17 09:44:10;;;;;;;7.03;3.47;;;11.10;98.00;;;;;;6119278;23;20420;-66
2022/03/17 09:46:42;;;;;;;7.53;3.17;;;11.30;98.00;;;;;;6119226;23;20405;-66
2022/03/17 09:49:11;;;;;;;5.07;2.90;;;11.30;98.00;;;;;;6118484;23;20435;-66
2022/03/17 09:51:42;;;;;;;5.67;2.80;;;11.20;98.00;;;;;;6118541;23;20412;-66
2022/03/17 09:54:10;;;;;;;5.60;2.70;;;11.10;98.00;;;;;;6119293;23;20446;-66
2022/03/17 09:56:37;;;;;;;4.67;2.90;;;11.20;98.00;;;;;;6118793;23;20568;-66
2022/03/17 09:59:06;;;;;;;3.57;2.57;;;11.40;98.00;;;;;;6118778;23;20407;-66
2022/03/17 10:01:38;;;;;;;2.83;2.27;;;11.30;98.00;;;;;;6119236;23;20498;-66
2022/03/17 10:04:07;;;;;;;6.17;3.50;;;11.20;98.00;;;;;;6118929;23;20889;-66
2022/03/17 10:06:34;;;;;;;5.23;3.77;;;11.30;98.00;;;;;;6118905;23;20400;-66
2022/03/17 10:09:01;;;;;;;3.70;2.40;;;11.40;98.00;;;;;;6118636;23;20913;-66
2022/03/17 10:11:30;;;;;;;4.90;2.87;;;11.60;98.00;;;;;;6119649;23;20454;-66
2022/03/17 10:13:59;;;;;;;4.83;2.83;;;11.50;98.00;;;;;;6119440;23;20418;-66
2022/03/17 10:16:28;;;;;;;4.90;3.00;;;11.60;98.00;;;;;;6120076;23;20434;-66
2022/03/17 10:19:00;;;;;;;3.80;2.63;;;11.60;98.00;;;;;;6120188;23;20713;-66
2022/03/17 10:21:28;;;;;;;3.00;2.80;;;11.60;98.00;;;;;;6120084;23;20457;-66
2022/03/17 10:23:59;;;;;;;4.37;3.37;;;11.50;98.00;;;;;;6119551;23;20407;-66
2022/03/17 10:26:35;;;;;;;4.93;3.00;;;11.50;98.00;;;;;;6119596;23;20875;-66
2022/03/17 10:29:09;;;;;;;7.63;2.53;;;11.40;98.00;;;;;;6119618;23;20407;-66
2022/03/17 10:31:58;;;;;;;9.30;3.90;;;11.70;98.00;;;;;;6095164;23;20463;-66
2022/03/17 10:34:29;;;;;;;3.93;3.20;;;11.80;98.00;;;;;;6120285;23;20406;-66
2022/03/17 10:37:08;;;;;;;4.17;3.13;;;11.80;98.00;;;;;;6119251;23;20412;-66
2022/03/17 10:39:42;;;;;;;3.40;2.80;;;11.60;98.00;;;;;;6119135;23;20425;-66
2022/03/17 10:42:15;;;;;;;6.17;3.93;;;11.50;98.00;;;;;;6118527;23;20411;-66
2022/03/17 10:44:47;;;;;;;3.30;2.70;;;11.50;98.00;;;;;;6119165;23;20606;-66
2022/03/17 10:47:14;;;;;;;2.80;2.37;;;11.60;98.00;;;;;;6118117;23;20965;-66
2022/03/17 10:50:05;;;;;;;5.93;3.83;;;11.80;98.00;;;;;;6117987;23;20465;-66
2022/03/17 10:52:50;;;;;;;6.20;3.87;;;12.00;98.00;;;;;;6118926;23;20517;-66
2022/03/17 10:55:24;;;;;;;2.13;1.97;;;11.80;98.00;;;;;;6118305;23;20942;-66
2022/03/17 10:57:52;;;;;;;5.00;3.80;;;11.90;98.00;;;;;;6119093;23;20489;-66
2022/03/17 11:00:21;;;;;;;4.40;3.70;;;12.00;98.00;;;;;;6118819;23;20921;-68
2022/03/17 11:02:53;;;;;;;3.07;2.13;;;12.10;98.00;;;;;;6119245;23;20437;-67
2022/03/17 11:05:21;;;;;;;4.23;2.93;;;12.20;98.00;;;;;;6118723;23;20875;-67
2022/03/17 11:07:48;;;;;;;3.03;2.80;;;12.10;98.00;;;;;;6119246;23;20882;-67
2022/03/17 11:10:21;;;;;;;4.43;3.53;;;11.90;98.00;;;;;;6118535;23;20877;-67
2022/03/17 11:12:50;;;;;;;6.00;3.17;;;11.90;98.00;;;;;;6118388;23;20892;-67
2022/03/17 11:15:25;;;;;;;10.20;3.77;;;11.80;98.00;;;;;;6118373;23;20437;-66
2022/03/17 11:17:54;;;;;;;5.20;2.63;;;11.90;98.00;;;;;;6093229;23;20404;-67
2022/03/17 11:20:24;;;;;;;3.50;2.43;;;12.00;98.00;;;;;;6118641;23;20439;-66
2022/03/17 11:23:30;;;;;;;3.93;3.27;;;12.10;98.00;;;;;;6117911;23;20411;-66
2022/03/17 11:25:59;;;;;;;4.30;3.10;;;12.20;98.00;;;;;;6118727;23;20718;-67
2022/03/17 11:28:34;;;;;;;4.90;2.90;;;12.20;98.00;;;;;;6118184;23;20783;-67
2022/03/17 11:31:03;;;;;;;3.60;2.90;;;12.20;98.00;;;;;;6118138;23;20414;-66
2022/03/17 11:33:33;;;;;;;3.17;2.50;;;12.30;98.00;;;;;;6118133;23;20501;-66
2022/03/17 11:36:11;;;;;;;3.50;2.70;;;12.40;98.00;;;;;;6118152;23;20529;-66
2022/03/17 11:38:41;;;;;;;3.60;3.47;;;12.50;98.00;;;;;;6118436;23;20952;-67
2022/03/17 11:41:11;;;;;;;5.20;3.33;;;12.50;98.00;;;;;;6105790;23;20511;-66
2022/03/17 11:43:58;;;;;;;6.17;3.20;;;12.50;98.00;;;;;;6118660;23;20493;-67
2022/03/17 11:46:35;;;;;;;3.77;3.37;;;12.50;98.00;;;;;;6118632;23;20405;-67
2022/03/17 11:49:21;;;;;;;4.00;2.70;;;12.40;98.00;;;;;;6117928;23;20426;-66
2022/03/17 11:52:02;;;;;;;4.00;2.47;;;12.20;98.00;;;;;;6118627;23;20406;-67
2022/03/17 11:54:30;;;;;;;6.33;3.07;;;12.00;98.00;;;;;;6118601;23;20687;-67
2022/03/17 11:56:59;;;;;;;3.13;2.77;;;12.00;98.00;;;;;;6118366;23;20509;-67
2022/03/17 11:59:49;;;;;;;8.03;2.80;;;11.90;98.00;;;;;;6119377;23;20403;-66
2022/03/17 12:02:16;;;;;;;3.87;3.03;;;12.10;98.00;;;;;;6120060;23;20480;-67
2022/03/17 12:04:49;;;;;;;2.80;2.53;;;12.30;98.00;;;;;;6120463;23;20402;-67
2022/03/17 12:07:19;;;;;;;6.53;3.57;;;12.50;98.00;;;;;;6119835;23;20770;-67
2022/03/17 12:09:46;;;;;;;3.93;3.00;;;12.60;98.00;;;;;;6120364;23;20435;-66
2022/03/17 12:12:22;;;;;;;5.17;3.80;;;12.60;98.00;;;;;;6119893;23;20431;-67
2022/03/17 12:14:52;;;;;;;6.57;3.27;;;12.60;98.00;;;;;;6119638;23;20407;-68
2022/03/17 12:17:22;;;;;;;2.70;2.30;;;12.50;98.00;;;;;;6119640;23;20415;-67
2022/03/17 12:20:08;;;;;;;5.20;3.83;;;12.50;98.00;;;;;;6094810;23;20409;-67
2022/03/17 12:22:39;;;;;;;5.40;2.90;;;12.50;98.00;;;;;;6119930;23;20408;-67
2022/03/17 12:25:17;;;;;;;5.27;2.47;;;12.40;98.00;;;;;;6094880;23;20777;-67
2022/03/17 12:27:45;;;;;;;3.60;3.00;;;12.50;98.00;;;;;;6118514;23;20415;-67
2022/03/17 12:30:14;;;;;;;3.10;2.50;;;12.30;98.00;;;;;;6117841;23;20482;-67
2022/03/17 12:32:45;;;;;;;3.00;2.00;;;12.50;98.00;;;;;;6119500;23;20458;-67
2022/03/17 12:35:13;;;;;;;4.60;3.30;;;13.00;98.00;;;;;;6119914;23;20494;-66
2022/03/17 12:37:44;;;;;;;3.70;3.17;;;13.20;98.00;;;;;;6120676;23;20906;-67
2022/03/17 12:40:14;;;;;;;6.90;4.07;;;13.00;98.00;;;;;;6120354;23;20401;-66
2022/03/17 12:42:44;;;;;;;6.53;3.20;;;13.00;98.00;;;;;;6130499;23;20422;-67
2022/03/17 12:45:12;;;;;;;4.73;3.50;;;12.90;98.00;;;;;;6120499;23;20412;-67
2022/03/17 12:47:42;;;;;;;3.93;2.80;;;12.80;98.00;;;;;;6120258;23;20523;-67
2022/03/17 12:50:10;;;;;;;5.00;3.93;;;12.60;98.00;;;;;;6119862;23;20459;-66
2022/03/17 12:52:40;;;;;;;5.40;3.10;;;12.50;98.00;;;;;;6120487;23;20423;-66
2022/03/17 12:55:12;;;;;;;3.47;2.67;;;12.40;98.00;;;;;;6120371;23;20497;-67
2022/03/17 12:57:40;;;;;;;3.00;2.80;;;12.20;98.00;;;;;;6120355;23;20401;-66
2022/03/17 13:00:11;;;;;;;3.67;3.47;;;12.10;98.00;;;;;;6120444;23;20424;-66
2022/03/17 13:02:38;;;;;;;4.70;3.10;;;12.10;98.00;;;;;;6120228;23;20401;-66
2022/03/17 13:07:47;;;;;;;6.77;3.37;;;12.10;98.00;;;;;;6118516;23;20418;-67
2022/03/17 13:10:18;;;;;;;3.33;2.67;;;12.20;98.00;;;;;;6119822;23;20894;-66
2022/03/17 13:15:30;;;;;;;3.23;2.60;;;12.20;98.00;;;;;;6098337;23;20432;-66
2022/03/17 13:18:02;;;;;;;3.07;2.27;;;12.30;98.00;;;;;;6120304;23;20408;-66
2022/03/17 13:20:29;;;;;;;3.50;2.90;;;12.30;98.00;;;;;;6120008;23;20456;-66
2022/03/17 13:23:01;;;;;;;7.67;3.23;;;12.50;98.00;;;;;;6121267;23;20753;-67
2022/03/17 13:25:31;;;;;;;4.20;2.43;;;12.50;98.00;;;;;;6121474;23;20790;-67